TimeEST,TemperatureF,Dew PointF,Humidity,Sea Level PressureIn,VisibilityMPH,Wind Direction,Wind SpeedMPH,Gust SpeedMPH,PrecipitationIn,Events,Conditions,WindDirDegrees,DateUTC
12:15 AM,4.1,-0.4,82,30.18,10.0,NNW,6.9,-,N/A,,Clear,330,2014-02-10 05:15:00
12:34 AM,3.7,-0.9,81,30.18,10.0,NNW,6.9,-,N/A,,Scattered Clouds,330,2014-02-10 05:34:00
12:54 AM,3.7,-1.8,78,30.18,10.0,NW,6.9,-,N/A,,Mostly Cloudy,320,2014-02-10 05:54:00
1:14 AM,4.1,-2.4,75,30.18,10.0,NW,8.1,-,N/A,,Mostly Cloudy,320,2014-02-10 06:14:00
1:34 AM,3.7,-3.5,72,30.18,10.0,WNW,5.8,-,N/A,,Scattered Clouds,300,2014-02-10 06:34:00
1:54 AM,1.2,-5.1,75,30.18,10.0,WNW,5.8,-,N/A,,Clear,300,2014-02-10 06:54:00
2:14 AM,0.3,-6.2,74,30.19,10.0,West,5.8,-,N/A,,Clear,280,2014-02-10 07:14:00
2:34 AM,-0.0,-5.6,77,30.19,10.0,West,4.6,-,N/A,,Scattered Clouds,270,2014-02-10 07:34:00
2:54 AM,-0.2,-5.8,77,30.19,10.0,West,5.8,-,N/A,,Scattered Clouds,270,2014-02-10 07:54:00
3:14 AM,0.1,-6.5,74,30.19,10.0,West,3.5,-,N/A,,Mostly Cloudy,270,2014-02-10 08:14:00
3:34 AM,-3.8,-9.4,77,30.19,10.0,WNW,5.8,-,N/A,,Scattered Clouds,290,2014-02-10 08:34:00
3:54 AM,-0.6,-6.7,75,30.19,10.0,NW,6.9,-,N/A,,Mostly Cloudy,310,2014-02-10 08:54:00
4:14 AM,0.3,-6.2,74,30.19,10.0,WNW,8.1,-,N/A,,Overcast,290,2014-02-10 09:14:00
4:35 AM,-1.1,-7.1,76,30.19,10.0,WNW,9.2,-,N/A,,Overcast,290,2014-02-10 09:35:00
4:54 AM,-1.8,-7.2,78,30.20,10.0,WNW,8.1,-,N/A,,Mostly Cloudy,290,2014-02-10 09:54:00
5:14 AM,-2.7,-7.8,79,30.20,10.0,WNW,8.1,-,N/A,,Scattered Clouds,290,2014-02-10 10:14:00
5:35 AM,-2.7,-7.6,80,30.20,10.0,WNW,9.2,-,N/A,,Clear,290,2014-02-10 10:35:00
5:54 AM,-2.4,-7.2,80,30.21,10.0,WNW,9.2,-,N/A,,Clear,300,2014-02-10 10:54:00
6:14 AM,-3.1,-8.0,80,30.21,10.0,WNW,9.2,-,N/A,,Clear,290,2014-02-10 11:14:00
6:34 AM,-2.6,-7.6,79,30.21,10.0,WNW,9.2,-,N/A,,Clear,300,2014-02-10 11:34:00
6:54 AM,-3.3,-8.0,80,30.21,10.0,WNW,10.4,-,N/A,,Clear,300,2014-02-10 11:54:00
7:14 AM,-4.0,-8.5,81,30.22,10.0,WNW,10.4,-,N/A,,Clear,300,2014-02-10 12:14:00
7:34 AM,-4.0,-8.5,81,30.23,10.0,WNW,9.2,-,N/A,,Clear,300,2014-02-10 12:34:00
7:54 AM,-4.0,-8.5,81,30.23,10.0,WNW,9.2,-,N/A,,Scattered Clouds,300,2014-02-10 12:54:00
8:15 AM,-3.1,-7.8,80,30.24,10.0,WNW,9.2,-,N/A,,Mostly Cloudy,300,2014-02-10 13:15:00
8:34 AM,-2.9,-7.8,80,30.25,10.0,WNW,8.1,-,N/A,Snow,Light Snow,300,2014-02-10 13:34:00
8:54 AM,-2.7,-7.6,80,30.26,10.0,NW,6.9,-,N/A,,Clear,310,2014-02-10 13:54:00
9:15 AM,-0.6,-6.3,77,30.26,10.0,NW,9.2,-,N/A,,Scattered Clouds,310,2014-02-10 14:15:00
9:34 AM,1.8,-4.9,74,30.26,10.0,NW,9.2,-,N/A,,Overcast,310,2014-02-10 14:34:00
9:54 AM,1.9,-5.1,72,30.26,10.0,NW,10.4,16.1,N/A,,Overcast,320,2014-02-10 14:54:00
10:14 AM,2.1,-5.1,72,30.27,10.0,WNW,11.5,16.1,N/A,,Overcast,300,2014-02-10 15:14:00
10:34 AM,3.2,-4.9,69,30.27,10.0,NNW,12.7,-,N/A,,Overcast,330,2014-02-10 15:34:00
10:54 AM,4.5,-4.0,68,30.27,10.0,NW,12.7,-,N/A,,Overcast,310,2014-02-10 15:54:00
11:14 AM,5.4,-4.0,65,30.27,10.0,North,11.5,-,N/A,,Mostly Cloudy,350,2014-02-10 16:14:00
11:34 AM,6.1,-4.7,61,30.27,10.0,NW,6.9,-,N/A,,Scattered Clouds,310,2014-02-10 16:34:00
11:55 AM,6.8,-4.7,59,30.28,10.0,NNW,9.2,-,N/A,,Mostly Cloudy,340,2014-02-10 16:55:00
12:14 PM,7.9,-4.7,57,30.28,10.0,NW,9.2,-,N/A,,Overcast,320,2014-02-10 17:14:00
12:34 PM,6.8,-5.4,57,30.27,10.0,North,8.1,-,N/A,,Overcast,350,2014-02-10 17:34:00
12:55 PM,6.8,-5.3,58,30.27,10.0,NNW,9.2,-,N/A,,Overcast,330,2014-02-10 17:55:00
1:14 PM,6.8,-5.1,58,30.27,10.0,NW,11.5,-,N/A,,Overcast,320,2014-02-10 18:14:00
1:34 PM,7.3,-5.3,56,30.27,10.0,WNW,5.8,16.1,N/A,,Overcast,290,2014-02-10 18:34:00
1:54 PM,7.2,-4.9,58,30.27,10.0,WNW,9.2,-,N/A,,Overcast,300,2014-02-10 18:54:00
2:14 PM,7.5,-5.6,55,30.27,10.0,WNW,6.9,-,N/A,,Overcast,300,2014-02-10 19:14:00
2:34 PM,6.6,-5.1,59,30.26,10.0,NNW,11.5,-,N/A,,Overcast,340,2014-02-10 19:34:00
2:54 PM,6.6,-6.0,56,30.27,10.0,North,11.5,16.1,N/A,,Overcast,350,2014-02-10 19:54:00
3:14 PM,6.3,-6.3,56,30.27,10.0,North,9.2,-,N/A,,Overcast,350,2014-02-10 20:14:00
3:35 PM,6.4,-5.8,57,30.28,10.0,NNW,10.4,-,N/A,,Overcast,340,2014-02-10 20:35:00
3:54 PM,6.3,-5.6,58,30.28,10.0,North,10.4,-,N/A,,Overcast,350,2014-02-10 20:54:00
4:14 PM,5.9,-6.7,56,30.28,10.0,NW,10.4,-,N/A,,Overcast,310,2014-02-10 21:14:00
4:35 PM,5.0,-7.6,56,30.29,10.0,NW,10.4,-,N/A,,Mostly Cloudy,320,2014-02-10 21:35:00
4:54 PM,4.3,-7.1,59,30.30,10.0,NNW,6.9,-,N/A,,Scattered Clouds,330,2014-02-10 21:54:00
5:14 PM,4.6,-6.7,59,30.31,10.0,NW,8.1,-,N/A,,Mostly Cloudy,320,2014-02-10 22:14:00
5:35 PM,4.6,-7.4,58,30.32,10.0,NW,9.2,-,N/A,,Overcast,320,2014-02-10 22:35:00
5:54 PM,3.4,-7.8,60,30.33,10.0,NNW,6.9,-,N/A,,Scattered Clouds,340,2014-02-10 22:54:00
6:14 PM,2.3,-7.2,64,30.33,10.0,North,4.6,-,N/A,,Scattered Clouds,350,2014-02-10 23:14:00
6:34 PM,1.4,-7.6,66,30.34,10.0,NNW,4.6,-,N/A,,Clear,340,2014-02-10 23:34:00
6:54 PM,0.7,-7.8,68,30.35,10.0,NNW,4.6,-,N/A,,Clear,330,2014-02-10 23:54:00
7:14 PM,-0.0,-8.1,69,30.35,10.0,Calm,Calm,-,N/A,,Clear,0,2014-02-11 00:14:00
7:34 PM,-4.4,-11.4,72,30.35,10.0,NNW,4.6,-,N/A,,Clear,340,2014-02-11 00:34:00
7:54 PM,-3.8,-9.9,75,30.35,10.0,Calm,Calm,-,N/A,,Clear,0,2014-02-11 00:54:00
8:15 PM,-6.0,-12.5,74,30.35,10.0,NNW,4.6,-,N/A,,Clear,330,2014-02-11 01:15:00
8:34 PM,-5.4,-10.8,77,30.35,10.0,NW,3.5,-,N/A,,Clear,320,2014-02-11 01:34:00
8:54 PM,-5.8,-11.7,75,30.36,10.0,NW,3.5,-,N/A,,Clear,310,2014-02-11 01:54:00
9:14 PM,-9.0,-13.9,79,30.37,10.0,NW,4.6,-,N/A,,Clear,310,2014-02-11 02:14:00
9:34 PM,-6.3,-11.7,77,30.37,10.0,NW,4.6,-,N/A,,Clear,310,2014-02-11 02:34:00
9:54 PM,-8.0,-13.4,77,30.37,10.0,NW,4.6,-,N/A,,Clear,320,2014-02-11 02:54:00
10:14 PM,-6.2,-10.7,81,30.38,10.0,NW,3.5,-,N/A,,Clear,310,2014-02-11 03:14:00
10:34 PM,-7.2,-11.7,81,30.38,10.0,West,4.6,-,N/A,,Clear,280,2014-02-11 03:34:00
10:54 PM,-9.6,-14.1,81,30.38,10.0,WNW,3.5,-,N/A,,Clear,290,2014-02-11 03:54:00
11:14 PM,-12.1,-16.1,83,30.38,10.0,West,3.5,-,N/A,,Clear,280,2014-02-11 04:14:00
11:34 PM,-8.0,-11.9,83,30.39,10.0,West,4.6,-,N/A,,Clear,270,2014-02-11 04:34:00
11:54 PM,-7.6,-11.4,84,30.39,10.0,Calm,Calm,-,N/A,,Clear,0,2014-02-11 04:54:00